createdAt,value
2018-09-22T00:00:13.737Z,20.80
2018-09-22T00:02:46.627Z,20.80
2018-09-22T00:05:19.542Z,20.70
2018-09-22T00:07:52.847Z,20.70
2018-09-22T00:10:25.515Z,20.70
2018-09-22T00:12:57.948Z,20.70
2018-09-22T00:15:30.813Z,20.60
2018-09-22T00:18:03.788Z,20.60
2018-09-22T00:20:36.860Z,20.60
2018-09-22T00:23:09.982Z,20.60
2018-09-22T00:25:42.996Z,20.50
2018-09-22T00:28:15.892Z,20.50
2018-09-22T00:30:48.788Z,20.50
2018-09-22T00:33:21.657Z,20.50
2018-09-22T00:35:54.330Z,20.50
2018-09-22T00:38:26.913Z,20.40
2018-09-22T00:41:00.002Z,20.40
2018-09-22T00:43:32.976Z,20.40
2018-09-22T00:46:05.847Z,20.30
2018-09-22T00:48:38.704Z,20.40
2018-09-22T00:51:11.694Z,20.30
2018-09-22T00:53:44.976Z,20.30
2018-09-22T00:56:17.582Z,20.30
2018-09-22T00:58:50.340Z,20.30
2018-09-22T01:01:22.892Z,20.30
2018-09-22T01:03:55.671Z,20.30
2018-09-22T01:06:29.961Z,20.30
2018-09-22T01:09:03.523Z,20.20
2018-09-22T01:11:35.910Z,20.20
2018-09-22T01:14:09.069Z,20.10
2018-09-22T01:16:42.030Z,20.10
2018-09-22T01:19:16.545Z,20.10
2018-09-22T01:21:49.610Z,20.10
2018-09-22T01:24:21.931Z,20.00
2018-09-22T01:26:54.557Z,20.10
2018-09-22T01:29:28.914Z,20.10
2018-09-22T01:32:16.158Z,20.20
2018-09-22T01:34:49.077Z,20.10
2018-09-22T01:37:21.615Z,20.10
2018-09-22T01:39:54.697Z,20.00
2018-09-22T01:42:27.197Z,20.00
2018-09-22T01:44:59.859Z,20.00
2018-09-22T01:47:32.463Z,19.90
2018-09-22T01:50:05.565Z,20.00
2018-09-22T01:52:38.377Z,19.90
2018-09-22T01:55:11.085Z,19.90
2018-09-22T01:57:43.302Z,19.90
2018-09-22T02:00:15.714Z,19.90
2018-09-22T02:02:48.896Z,19.90
2018-09-22T02:05:21.541Z,19.90
2018-09-22T02:07:54.265Z,19.90
2018-09-22T02:10:27.399Z,19.90
2018-09-22T02:12:59.845Z,19.90
2018-09-22T02:15:32.697Z,19.90
2018-09-22T02:18:04.859Z,19.80
2018-09-22T02:20:37.110Z,19.80
2018-09-22T02:23:10.102Z,19.80
2018-09-22T02:25:53.668Z,19.70
2018-09-22T02:28:28.985Z,19.70
2018-09-22T02:31:03.896Z,19.70
2018-09-22T02:33:39.104Z,19.60
2018-09-22T02:36:17.338Z,19.60
2018-09-22T02:38:52.222Z,19.50
2018-09-22T02:41:25.757Z,19.40
2018-09-22T02:43:58.600Z,19.30
2018-09-22T02:46:31.961Z,19.30
2018-09-22T02:49:04.954Z,19.30
2018-09-22T02:51:37.546Z,19.20
2018-09-22T02:54:10.135Z,19.20
2018-09-22T02:56:43.024Z,19.10
2018-09-22T02:59:16.248Z,19.10
2018-09-22T03:01:48.526Z,19.10
2018-09-22T03:04:21.432Z,19.10
2018-09-22T03:06:54.079Z,19.10
2018-09-22T03:09:26.800Z,19.10
2018-09-22T03:12:00.324Z,19.10
2018-09-22T03:14:34.316Z,19.00
2018-09-22T03:17:07.288Z,19.00
2018-09-22T03:19:39.536Z,18.90
2018-09-22T03:22:12.527Z,18.90
2018-09-22T03:24:45.957Z,18.90
2018-09-22T03:27:19.314Z,19.00
2018-09-22T03:29:52.034Z,18.90
2018-09-22T03:32:25.062Z,18.80
2018-09-22T03:34:57.501Z,18.70
2018-09-22T03:37:31.221Z,18.70
2018-09-22T03:40:06.880Z,18.60
2018-09-22T03:42:40.020Z,18.60
2018-09-22T03:45:13.608Z,18.50
2018-09-22T03:47:46.340Z,18.40
2018-09-22T03:50:18.742Z,18.40
2018-09-22T03:52:51.583Z,18.40
2018-09-22T03:55:24.431Z,18.40
2018-09-22T03:57:59.019Z,18.40
2018-09-22T04:00:32.115Z,18.50
2018-09-22T04:03:05.237Z,18.50
2018-09-22T04:05:38.224Z,18.50
2018-09-22T04:08:11.004Z,18.50
2018-09-22T04:10:43.917Z,18.40
2018-09-22T04:13:25.636Z,18.40
2018-09-22T04:15:58.788Z,18.40
2018-09-22T04:18:32.049Z,18.40
2018-09-22T04:21:04.781Z,18.50
2018-09-22T04:23:38.189Z,18.50
2018-09-22T04:26:10.775Z,18.60
2018-09-22T04:28:43.875Z,18.70
2018-09-22T04:31:16.745Z,18.70
2018-09-22T04:33:49.818Z,18.70
2018-09-22T04:36:22.925Z,18.70
2018-09-22T04:38:55.560Z,18.70
2018-09-22T04:41:29.019Z,18.70
2018-09-22T04:44:01.707Z,18.70
2018-09-22T04:46:35.133Z,18.70
2018-09-22T04:49:07.896Z,18.60
2018-09-22T04:51:40.322Z,18.50
2018-09-22T04:54:13.261Z,18.50
2018-09-22T04:56:45.961Z,18.40
2018-09-22T04:59:20.781Z,18.40
2018-09-22T05:01:53.280Z,18.40
2018-09-22T05:04:26.112Z,18.40
2018-09-22T05:06:58.245Z,18.30
2018-09-22T05:09:30.770Z,18.20
2018-09-22T05:12:02.997Z,18.10
2018-09-22T05:14:35.654Z,18.00
2018-09-22T05:17:08.697Z,18.00
2018-09-22T05:19:41.476Z,18.10
2018-09-22T05:22:16.878Z,18.10
2018-09-22T05:24:49.753Z,18.20
2018-09-22T05:27:22.570Z,18.10
2018-09-22T05:29:55.525Z,18.10
2018-09-22T05:32:28.379Z,18.10
2018-09-22T05:35:00.983Z,18.10
2018-09-22T05:37:33.846Z,18.10
2018-09-22T05:40:06.341Z,18.20
2018-09-22T05:42:38.692Z,18.30
2018-09-22T05:45:12.188Z,18.30
2018-09-22T05:47:45.274Z,18.30
2018-09-22T05:50:18.103Z,18.20
2018-09-22T05:52:51.078Z,18.20
2018-09-22T05:55:23.273Z,18.20
2018-09-22T05:57:55.675Z,18.10
2018-09-22T06:03:16.870Z,17.90
2018-09-22T06:05:49.671Z,17.80
2018-09-22T06:08:22.662Z,17.80
2018-09-22T06:10:55.996Z,17.70
2018-09-22T06:13:28.608Z,17.60
2018-09-22T06:16:01.467Z,17.50
2018-09-22T06:18:34.351Z,17.50
2018-09-22T06:21:07.044Z,17.40
2018-09-22T06:23:40.474Z,17.40
2018-09-22T06:26:13.132Z,17.30
2018-09-22T06:28:45.690Z,17.20
2018-09-22T06:31:18.310Z,17.20
2018-09-22T06:33:51.217Z,17.20
2018-09-22T06:36:23.829Z,17.20
2018-09-22T06:38:56.642Z,17.20
2018-09-22T06:41:29.172Z,17.20
2018-09-22T06:44:01.899Z,17.10
2018-09-22T06:46:34.616Z,17.10
2018-09-22T06:49:07.395Z,17.10
2018-09-22T06:51:40.000Z,17.10
2018-09-22T06:54:12.896Z,17.20
2018-09-22T06:56:45.627Z,17.20
2018-09-22T06:59:19.684Z,17.10
2018-09-22T07:01:52.103Z,17.10
2018-09-22T07:04:24.872Z,17.10
2018-09-22T07:06:57.485Z,17.10
2018-09-22T07:09:29.968Z,17.10
2018-09-22T07:12:03.051Z,17.10
2018-09-22T07:14:35.884Z,17.10
2018-09-22T07:17:08.642Z,17.00
2018-09-22T07:19:42.337Z,17.00
2018-09-22T07:22:19.611Z,17.00
2018-09-22T07:24:52.612Z,17.10
2018-09-22T07:27:25.351Z,17.10
2018-09-22T07:29:58.533Z,17.10
2018-09-22T07:32:31.166Z,17.10
2018-09-22T07:35:03.835Z,17.20
2018-09-22T07:37:36.821Z,17.20
2018-09-22T07:40:09.709Z,17.20
2018-09-22T07:42:42.705Z,17.30
2018-09-22T07:45:15.215Z,17.30
2018-09-22T07:47:47.862Z,17.30
2018-09-22T07:50:20.148Z,17.30
2018-09-22T07:52:52.921Z,17.30
2018-09-22T07:55:25.500Z,17.30
2018-09-22T07:57:58.517Z,17.30
2018-09-22T08:00:31.217Z,17.30
2018-09-22T08:03:04.089Z,17.30
2018-09-22T08:05:37.179Z,17.20
2018-09-22T08:08:10.204Z,17.20
2018-09-22T08:10:42.937Z,17.30
2018-09-22T08:13:15.971Z,17.20
2018-09-22T08:15:48.812Z,17.20
2018-09-22T08:18:21.221Z,17.20
2018-09-22T08:20:53.738Z,17.20
2018-09-22T08:23:26.679Z,17.10
2018-09-22T08:25:59.492Z,17.10
2018-09-22T08:28:32.211Z,17.10
2018-09-22T08:31:04.733Z,17.10
2018-09-22T08:33:38.608Z,17.10
2018-09-22T08:36:11.247Z,17.10
2018-09-22T08:38:44.879Z,17.10
2018-09-22T08:41:17.343Z,17.10
2018-09-22T08:43:50.061Z,17.10
2018-09-22T08:46:22.413Z,17.10
2018-09-22T08:48:55.560Z,17.10
2018-09-22T08:51:28.149Z,17.10
2018-09-22T08:54:00.932Z,17.10
2018-09-22T08:56:33.443Z,17.10
2018-09-22T08:59:06.662Z,17.10
2018-09-22T09:01:39.425Z,17.10
2018-09-22T09:04:11.948Z,17.10
2018-09-22T09:06:44.880Z,17.10
2018-09-22T09:09:17.649Z,17.10
2018-09-22T09:11:50.248Z,17.20
2018-09-22T09:14:23.011Z,17.20
2018-09-22T09:16:55.641Z,17.20
2018-09-22T09:19:28.545Z,17.30
2018-09-22T09:22:01.224Z,17.30
2018-09-22T09:24:33.989Z,17.30
2018-09-22T09:27:07.515Z,17.40
2018-09-22T09:29:40.430Z,17.40
2018-09-22T09:32:13.377Z,17.30
2018-09-22T09:34:46.485Z,17.40
2018-09-22T09:37:19.636Z,17.40
2018-09-22T09:39:53.105Z,17.40
2018-09-22T09:42:26.124Z,17.30
2018-09-22T09:44:59.564Z,17.30
2018-09-22T09:47:32.189Z,17.30
2018-09-22T09:50:05.301Z,17.40
2018-09-22T09:52:38.506Z,17.40
2018-09-22T09:55:11.438Z,17.40
2018-09-22T09:57:43.713Z,17.40
2018-09-22T10:00:18.954Z,17.40
2018-09-22T10:02:52.257Z,17.40
2018-09-22T10:05:24.449Z,17.40
2018-09-22T10:07:57.332Z,17.30
2018-09-22T10:10:30.289Z,17.30
2018-09-22T10:13:02.965Z,17.30
2018-09-22T10:15:35.624Z,17.30
2018-09-22T10:18:08.773Z,17.30
2018-09-22T10:20:41.597Z,17.30
2018-09-22T10:23:14.597Z,17.30
2018-09-22T10:25:47.241Z,17.30
2018-09-22T10:28:20.245Z,17.30
2018-09-22T10:30:53.460Z,17.30
2018-09-22T10:33:26.603Z,17.30
2018-09-22T10:36:00.143Z,17.30
2018-09-22T10:38:32.959Z,17.30
2018-09-22T10:41:07.008Z,17.30
2018-09-22T10:43:39.796Z,17.20
2018-09-22T10:46:12.326Z,17.20
2018-09-22T10:48:44.521Z,17.30
2018-09-22T10:51:17.832Z,17.30
2018-09-22T10:53:50.523Z,17.30
2018-09-22T10:56:23.142Z,17.30
2018-09-22T10:58:56.193Z,17.30
2018-09-22T11:01:29.276Z,17.30
2018-09-22T11:04:01.866Z,17.30
2018-09-22T11:06:35.116Z,17.30
2018-09-22T11:09:09.628Z,17.20
2018-09-22T11:11:41.755Z,17.30
2018-09-22T11:14:14.019Z,17.30
2018-09-22T11:16:46.625Z,17.30
2018-09-22T11:19:19.607Z,17.20
2018-09-22T11:21:51.878Z,17.20
2018-09-22T11:24:24.980Z,17.20
2018-09-22T11:26:57.316Z,17.30
2018-09-22T11:29:29.859Z,17.30
2018-09-22T11:32:02.102Z,17.30
2018-09-22T11:34:35.303Z,17.30
2018-09-22T11:37:07.873Z,17.30
2018-09-22T11:39:40.457Z,17.30
2018-09-22T11:42:14.302Z,17.30
2018-09-22T11:44:46.711Z,17.30
2018-09-22T11:47:20.113Z,17.30
2018-09-22T11:49:52.760Z,17.30
2018-09-22T11:52:25.678Z,17.20
2018-09-22T11:54:59.351Z,17.30
2018-09-22T11:57:36.913Z,17.30
2018-09-22T12:00:09.712Z,17.30
2018-09-22T12:02:44.930Z,17.30
2018-09-22T12:05:21.699Z,17.20
2018-09-22T12:07:54.537Z,17.20
2018-09-22T12:10:28.605Z,17.20
2018-09-22T12:13:00.841Z,17.20
2018-09-22T12:15:33.845Z,17.30
2018-09-22T12:18:06.231Z,17.30
2018-09-22T12:20:38.880Z,17.30
2018-09-22T12:23:11.477Z,17.30
2018-09-22T12:25:44.201Z,17.30
2018-09-22T12:28:16.565Z,17.40
2018-09-22T12:30:49.708Z,17.40
2018-09-22T12:33:22.873Z,17.40
2018-09-22T12:35:55.759Z,17.50
2018-09-22T12:38:28.451Z,17.50
2018-09-22T12:41:02.046Z,17.50
2018-09-22T12:43:48.601Z,17.50
2018-09-22T12:46:21.187Z,17.50
2018-09-22T12:48:54.026Z,17.50
2018-09-22T12:51:26.315Z,17.60
2018-09-22T12:53:59.640Z,17.60
2018-09-22T12:56:32.545Z,17.60
2018-09-22T12:59:05.256Z,17.60
2018-09-22T13:01:38.364Z,17.70
2018-09-22T13:04:16.424Z,17.70
2018-09-22T13:06:48.499Z,17.80
2018-09-22T13:09:21.443Z,18.10
2018-09-22T13:11:54.164Z,18.40
2018-09-22T13:14:29.553Z,18.60
2018-09-22T13:17:02.288Z,18.80
2018-09-22T13:19:34.900Z,19.30
2018-09-22T13:22:07.503Z,19.20
2018-09-22T13:24:40.632Z,19.50
2018-09-22T13:27:13.095Z,19.70
2018-09-22T13:29:46.772Z,19.60
2018-09-22T13:32:19.298Z,19.50
2018-09-22T13:34:52.137Z,19.60
2018-09-22T13:37:24.573Z,19.70
2018-09-22T13:39:57.413Z,19.50
2018-09-22T13:42:30.277Z,19.60
2018-09-22T13:45:03.076Z,19.80
2018-09-22T13:47:37.865Z,19.80
2018-09-22T13:50:10.673Z,20.00
2018-09-22T13:52:43.553Z,20.10
2018-09-22T13:55:16.417Z,20.10
2018-09-22T13:57:49.320Z,20.00
2018-09-22T14:00:22.262Z,20.00
2018-09-22T14:02:55.223Z,19.90
2018-09-22T14:05:27.948Z,20.20
2018-09-22T14:08:00.587Z,20.40
2018-09-22T14:10:33.067Z,20.50
2018-09-22T14:13:05.746Z,20.80
2018-09-22T14:15:37.997Z,20.70
2018-09-22T14:18:11.524Z,20.30
2018-09-22T14:20:43.938Z,20.40
2018-09-22T14:26:18.457Z,20.50
2018-09-22T14:28:51.306Z,20.30
2018-09-22T14:31:24.176Z,20.50
2018-09-22T14:33:56.835Z,21.00
2018-09-22T14:36:29.910Z,21.40
2018-09-22T14:39:02.532Z,22.00
2018-09-22T14:41:35.525Z,22.00
2018-09-22T14:44:08.463Z,22.20
2018-09-22T14:46:59.149Z,22.40
2018-09-22T14:49:32.431Z,22.50
2018-09-22T14:52:05.399Z,22.70
2018-09-22T14:54:38.297Z,23.00
2018-09-22T14:57:12.600Z,22.50
2018-09-22T14:59:45.734Z,22.10
2018-09-22T15:02:18.506Z,21.70
2018-09-22T15:04:51.310Z,21.70
2018-09-22T15:07:33.334Z,21.80
2018-09-22T15:10:26.618Z,21.40
2018-09-22T15:13:22.680Z,21.40
2018-09-22T15:16:06.686Z,21.10
2018-09-22T15:18:45.213Z,21.30
2018-09-22T15:21:30.698Z,21.60
2018-09-22T15:24:07.866Z,22.00
2018-09-22T15:26:40.661Z,22.00
2018-09-22T15:29:13.309Z,22.90
2018-09-22T15:31:46.042Z,23.80
2018-09-22T15:34:18.678Z,23.30
2018-09-22T15:36:52.084Z,23.10
2018-09-22T15:39:25.249Z,23.60
2018-09-22T15:41:57.949Z,23.50
2018-09-22T15:44:31.700Z,23.40
2018-09-22T15:47:04.316Z,22.70
2018-09-22T15:49:37.046Z,23.40
2018-09-22T15:52:09.959Z,23.10
2018-09-22T15:54:43.110Z,23.40
2018-09-22T15:57:15.649Z,24.00
2018-09-22T15:59:48.730Z,23.30
2018-09-22T16:02:21.029Z,23.40
2018-09-22T16:04:53.338Z,23.60
2018-09-22T16:07:25.939Z,24.00
2018-09-22T16:09:58.767Z,25.40
2018-09-22T16:12:31.203Z,25.00
2018-09-22T16:15:05.279Z,23.70
2018-09-22T16:17:37.669Z,23.10
2018-09-22T16:20:10.192Z,23.10
2018-09-22T16:22:42.615Z,23.50
2018-09-22T16:25:15.520Z,24.60
2018-09-22T16:27:47.833Z,23.80
2018-09-22T16:30:23.437Z,23.20
2018-09-22T16:32:55.630Z,23.20
2018-09-22T16:35:28.555Z,22.50
2018-09-22T16:38:00.687Z,22.70
2018-09-22T16:40:33.399Z,23.10
2018-09-22T16:43:06.393Z,23.90
2018-09-22T16:45:39.770Z,23.90
2018-09-22T16:48:12.381Z,23.70
2018-09-22T16:50:45.484Z,22.90
2018-09-22T16:53:18.246Z,22.80
2018-09-22T16:55:50.615Z,22.80
2018-09-22T16:58:23.383Z,23.30
2018-09-22T17:00:55.999Z,24.00
2018-09-22T17:03:28.608Z,24.00
2018-09-22T17:06:00.869Z,24.00
2018-09-22T17:08:33.428Z,24.30
2018-09-22T17:11:05.695Z,24.80
2018-09-22T17:13:38.317Z,24.60
2018-09-22T17:16:11.502Z,24.70
2018-09-22T17:18:43.722Z,25.00
2018-09-22T17:21:16.179Z,23.70
2018-09-22T17:23:48.887Z,23.30
2018-09-22T17:26:21.960Z,23.90
2018-09-22T17:28:54.121Z,23.80
2018-09-22T17:31:27.250Z,24.30
2018-09-22T17:33:59.535Z,23.90
2018-09-22T17:36:32.582Z,24.60
2018-09-22T17:39:05.252Z,24.80
2018-09-22T17:41:37.943Z,25.50
2018-09-22T17:44:10.792Z,25.60
2018-09-22T17:49:38.834Z,25.90
2018-09-22T17:52:11.822Z,25.40
2018-09-22T17:54:44.809Z,25.60
2018-09-22T17:57:17.196Z,25.40
2018-09-22T17:59:49.789Z,25.70
2018-09-22T18:02:22.788Z,24.80
2018-09-22T18:04:56.146Z,25.40
2018-09-22T18:07:28.962Z,25.10
2018-09-22T18:10:02.661Z,25.90
2018-09-22T18:12:35.162Z,26.50
2018-09-22T18:15:07.861Z,26.70
2018-09-22T18:21:01.889Z,26.20
2018-09-22T18:23:34.427Z,25.70
2018-09-22T18:26:07.032Z,25.20
2018-09-22T18:28:39.549Z,25.10
2018-09-22T18:31:11.841Z,26.20
2018-09-22T18:33:44.867Z,26.90
2018-09-22T18:36:17.333Z,26.10
2018-09-22T18:38:49.429Z,26.00
2018-09-22T18:41:22.402Z,24.90
2018-09-22T18:43:54.557Z,25.60
2018-09-22T18:46:27.048Z,25.80
2018-09-22T18:52:31.076Z,27.10
2018-09-22T18:55:04.149Z,25.40
2018-09-22T18:57:37.028Z,25.30
2018-09-22T19:00:10.594Z,25.00
2018-09-22T19:02:43.528Z,25.50
2018-09-22T19:05:17.149Z,25.50
2018-09-22T19:07:50.107Z,25.50
2018-09-22T19:10:23.325Z,25.40
2018-09-22T19:12:57.761Z,26.40
2018-09-22T19:15:48.306Z,27.50
2018-09-22T19:18:31.169Z,28.10
2018-09-22T19:21:11.776Z,27.30
2018-09-22T19:23:48.289Z,27.80
2018-09-22T19:26:25.464Z,27.00
2018-09-22T19:29:08.877Z,25.80
2018-09-22T19:31:52.820Z,25.90
2018-09-22T19:34:31.530Z,25.60
2018-09-22T19:37:41.401Z,25.70
2018-09-22T19:43:42.201Z,26.30
2018-09-22T19:46:20.402Z,25.90
2018-09-22T19:49:04.876Z,25.50
2018-09-22T19:51:42.478Z,25.80
2018-09-22T19:54:17.759Z,25.70
2018-09-22T19:56:51.026Z,25.40
2018-09-22T19:59:24.752Z,25.70
2018-09-22T20:01:57.920Z,25.30
2018-09-22T20:04:31.264Z,25.00
2018-09-22T20:07:04.519Z,25.10
2018-09-22T20:09:37.645Z,24.60
2018-09-22T20:12:11.161Z,24.60
2018-09-22T20:14:44.549Z,24.70
2018-09-22T20:17:17.974Z,25.10
2018-09-22T20:19:51.854Z,24.80
2018-09-22T20:22:25.600Z,24.50
2018-09-22T20:24:59.075Z,24.30
2018-09-22T20:27:32.272Z,24.30
2018-09-22T20:30:05.847Z,24.30
2018-09-22T20:32:39.080Z,24.90
2018-09-22T20:35:12.489Z,25.40
2018-09-22T20:37:45.391Z,25.20
2018-09-22T20:40:18.779Z,25.20
2018-09-22T20:42:52.709Z,25.10
2018-09-22T20:45:27.411Z,24.50
2018-09-22T20:48:00.862Z,24.20
2018-09-22T20:50:34.039Z,24.10
2018-09-22T20:53:07.428Z,23.60
2018-09-22T20:55:40.984Z,23.50
2018-09-22T20:58:14.546Z,23.40
2018-09-22T21:00:48.942Z,23.50
2018-09-22T21:03:22.310Z,23.60
2018-09-22T21:05:55.331Z,23.90
2018-09-22T21:08:28.436Z,23.90
2018-09-22T21:11:01.613Z,24.00
2018-09-22T21:13:36.791Z,23.80
2018-09-22T21:16:10.160Z,23.70
2018-09-22T21:18:42.827Z,23.40
2018-09-22T21:21:16.929Z,23.10
2018-09-22T21:23:50.027Z,23.20
2018-09-22T21:26:23.376Z,22.90
2018-09-22T21:28:56.761Z,22.60
2018-09-22T21:31:29.815Z,22.30
2018-09-22T21:34:04.578Z,22.20
2018-09-22T21:36:37.840Z,22.00
2018-09-22T21:39:12.731Z,20.90
2018-09-22T21:45:07.110Z,19.80
2018-09-22T21:47:40.009Z,19.70
2018-09-22T21:50:12.884Z,19.70
2018-09-22T21:52:47.361Z,19.70
2018-09-22T21:55:20.489Z,19.70
2018-09-22T22:01:18.907Z,19.80
2018-09-22T22:03:52.333Z,19.60
2018-09-22T22:06:25.595Z,19.30
2018-09-22T22:08:59.602Z,19.10
2018-09-22T22:11:33.886Z,19.10
2018-09-22T22:14:08.008Z,19.10
2018-09-22T22:17:08.868Z,19.20
2018-09-22T22:19:58.084Z,19.20
2018-09-22T22:22:42.419Z,19.30
2018-09-22T22:25:35.347Z,19.40
2018-09-22T22:28:27.058Z,19.60
2018-09-22T22:31:03.253Z,19.70
2018-09-22T22:33:47.129Z,19.80
2018-09-22T22:40:13.912Z,20.10
2018-09-22T22:44:03.749Z,20.20
2018-09-22T22:46:46.617Z,20.20
2018-09-22T22:49:32.602Z,20.20
2018-09-22T22:52:08.524Z,20.20
2018-09-22T22:54:42.997Z,20.20
2018-09-22T22:57:19.296Z,20.30
2018-09-22T22:59:55.622Z,20.30
2018-09-22T23:03:05.198Z,20.30
2018-09-22T23:05:47.344Z,20.40
2018-09-22T23:08:23.528Z,20.40
2018-09-22T23:11:04.953Z,20.40
2018-09-22T23:13:47.988Z,20.40
2018-09-22T23:16:21.862Z,20.40
2018-09-22T23:18:56.647Z,20.30
2018-09-22T23:22:15.542Z,20.30
2018-09-22T23:24:48.719Z,20.20
2018-09-22T23:27:21.647Z,20.20
2018-09-22T23:29:54.949Z,20.10
2018-09-22T23:32:27.780Z,20.10
2018-09-22T23:35:00.741Z,20.10
2018-09-22T23:37:33.615Z,20.10
2018-09-22T23:40:06.684Z,20.10
2018-09-22T23:42:39.049Z,20.10
2018-09-22T23:45:12.071Z,20.00
2018-09-22T23:47:45.508Z,20.00
2018-09-22T23:50:18.132Z,19.90
2018-09-22T23:52:51.056Z,19.80
2018-09-22T23:55:23.985Z,19.70
2018-09-22T23:57:56.848Z,19.70
